createdAt,value
2018-08-27T00:00:36.161Z,16.83
2018-08-27T00:01:41.676Z,16.85
2018-08-27T00:02:47.196Z,16.81
2018-08-27T00:03:52.708Z,16.85
2018-08-27T00:04:58.221Z,16.85
2018-08-27T00:06:03.733Z,16.83
2018-08-27T00:07:09.247Z,16.83
2018-08-27T00:08:14.767Z,16.80
2018-08-27T00:09:20.279Z,16.89
2018-08-27T00:10:25.791Z,16.80
2018-08-27T00:11:31.308Z,16.77
2018-08-27T00:12:36.819Z,16.73
2018-08-27T00:13:42.336Z,16.80
2018-08-27T00:14:47.855Z,16.78
2018-08-27T00:15:53.360Z,16.77
2018-08-27T00:16:58.886Z,16.77
2018-08-27T00:18:04.394Z,16.77
2018-08-27T00:19:09.905Z,16.68
2018-08-27T00:20:15.419Z,16.65
2018-08-27T00:21:20.944Z,16.62
2018-08-27T00:22:26.450Z,16.73
2018-08-27T00:23:31.963Z,16.75
2018-08-27T00:24:37.476Z,16.73
2018-08-27T00:25:43.002Z,16.75
2018-08-27T00:26:48.509Z,16.71
2018-08-27T00:27:54.027Z,16.74
2018-08-27T00:28:59.532Z,16.70
2018-08-27T00:30:05.048Z,16.71
2018-08-27T00:31:10.565Z,16.71
2018-08-27T00:32:16.082Z,16.70
2018-08-27T00:33:21.592Z,16.73
2018-08-27T00:34:27.104Z,16.70
2018-08-27T00:35:32.623Z,16.70
2018-08-27T00:36:38.135Z,16.68
2018-08-27T00:37:43.654Z,16.71
2018-08-27T00:38:49.168Z,16.70
2018-08-27T00:39:54.678Z,16.71
2018-08-27T00:41:00.197Z,16.71
2018-08-27T00:42:05.706Z,16.67
2018-08-27T00:43:11.220Z,16.60
2018-08-27T00:44:16.740Z,16.70
2018-08-27T00:45:22.247Z,16.65
2018-08-27T00:46:27.763Z,16.67
2018-08-27T00:47:33.279Z,16.77
2018-08-27T00:48:38.791Z,16.74
2018-08-27T00:49:44.303Z,16.80
2018-08-27T00:50:49.819Z,16.73
2018-08-27T00:51:55.341Z,16.80
2018-08-27T00:53:00.867Z,16.86
2018-08-27T00:54:06.359Z,16.80
2018-08-27T00:55:11.877Z,16.85
2018-08-27T00:56:17.389Z,16.90
2018-08-27T00:57:22.903Z,16.83
2018-08-27T00:58:28.426Z,16.81
2018-08-27T00:59:33.935Z,16.83
2018-08-27T01:00:39.448Z,16.86
2018-08-27T01:01:44.966Z,16.81
2018-08-27T01:02:50.476Z,16.92
2018-08-27T01:03:55.990Z,16.92
2018-08-27T01:05:01.505Z,16.95
2018-08-27T01:06:07.024Z,16.90
2018-08-27T01:07:12.531Z,16.89
2018-08-27T01:08:18.044Z,16.90
2018-08-27T01:09:23.562Z,16.98
2018-08-27T01:10:29.084Z,16.96
2018-08-27T01:11:34.588Z,17.00
2018-08-27T01:12:40.108Z,17.03
2018-08-27T01:13:45.620Z,17.03
2018-08-27T01:14:51.138Z,17.06
2018-08-27T01:15:56.660Z,17.15
2018-08-27T01:17:02.177Z,17.17
2018-08-27T01:18:07.678Z,17.17
2018-08-27T01:19:13.191Z,17.14
2018-08-27T01:20:18.705Z,17.20
2018-08-27T01:21:24.228Z,17.25
2018-08-27T01:22:29.761Z,17.18
2018-08-27T01:23:35.249Z,17.32
2018-08-27T01:24:40.760Z,17.29
2018-08-27T01:25:46.280Z,17.25
2018-08-27T01:26:51.792Z,17.35
2018-08-27T01:27:57.304Z,17.40
2018-08-27T01:29:02.818Z,17.40
2018-08-27T01:30:08.335Z,17.43
2018-08-27T01:31:13.856Z,17.38
2018-08-27T01:32:19.362Z,17.38
2018-08-27T01:33:24.877Z,17.40
2018-08-27T01:34:30.394Z,17.40
2018-08-27T01:35:35.909Z,17.40
2018-08-27T01:36:41.428Z,17.48
2018-08-27T01:37:46.938Z,17.46
2018-08-27T01:38:52.449Z,17.44
2018-08-27T01:39:57.971Z,17.47
2018-08-27T01:41:03.484Z,17.48
2018-08-27T01:42:08.994Z,17.47
2018-08-27T01:43:14.509Z,17.54
2018-08-27T01:44:20.030Z,17.66
2018-08-27T01:45:25.540Z,17.63
2018-08-27T01:46:31.050Z,17.55
2018-08-27T01:47:36.567Z,17.57
2018-08-27T01:48:42.081Z,17.53
2018-08-27T01:49:47.594Z,17.54
2018-08-27T01:50:53.107Z,17.55
2018-08-27T01:51:58.626Z,17.64
2018-08-27T01:53:04.142Z,17.62
2018-08-27T01:54:09.652Z,17.59
2018-08-27T01:55:15.174Z,17.63
2018-08-27T01:56:20.732Z,17.67
2018-08-27T01:57:26.194Z,17.69
2018-08-27T01:58:31.714Z,17.57
2018-08-27T01:59:37.224Z,17.67
2018-08-27T02:00:42.738Z,17.54
2018-08-27T02:01:48.255Z,17.71
2018-08-27T02:02:53.773Z,17.64
2018-08-27T02:03:59.286Z,17.70
2018-08-27T02:05:04.803Z,17.63
2018-08-27T02:06:10.315Z,17.71
2018-08-27T02:07:15.829Z,17.74
2018-08-27T02:08:21.345Z,17.70
2018-08-27T02:09:26.857Z,17.69
2018-08-27T02:10:32.379Z,17.70
2018-08-27T02:11:37.886Z,17.70
2018-08-27T02:12:43.405Z,17.73
2018-08-27T02:13:48.919Z,17.73
2018-08-27T02:14:54.440Z,17.69
2018-08-27T02:15:59.947Z,17.71
2018-08-27T02:17:05.470Z,17.62
2018-08-27T02:18:10.973Z,17.69
2018-08-27T02:19:16.511Z,17.66
2018-08-27T02:20:22.004Z,17.66
2018-08-27T02:21:27.519Z,17.64
2018-08-27T02:22:33.034Z,17.59
2018-08-27T02:23:38.547Z,17.73
2018-08-27T02:24:44.063Z,17.69
2018-08-27T02:25:49.601Z,17.67
2018-08-27T02:26:55.099Z,17.70
2018-08-27T02:28:00.612Z,17.74
2018-08-27T02:29:06.123Z,17.66
2018-08-27T02:30:11.642Z,17.59
2018-08-27T02:31:17.154Z,17.59
2018-08-27T02:32:22.755Z,17.62
2018-08-27T02:33:28.178Z,17.55
2018-08-27T02:34:33.695Z,17.64
2018-08-27T02:35:39.208Z,17.64
2018-08-27T02:36:44.729Z,17.51
2018-08-27T02:37:50.243Z,17.62
2018-08-27T02:38:55.756Z,17.57
2018-08-27T02:40:01.270Z,17.59
2018-08-27T02:41:06.781Z,17.59
2018-08-27T02:42:12.301Z,17.54
2018-08-27T02:43:17.813Z,17.53
2018-08-27T02:44:23.332Z,17.50
2018-08-27T02:45:28.843Z,17.50
2018-08-27T02:46:34.355Z,17.51
2018-08-27T02:47:39.869Z,17.47
2018-08-27T02:48:45.389Z,17.40
2018-08-27T02:49:50.901Z,17.38
2018-08-27T02:50:56.415Z,17.38
2018-08-27T02:52:01.940Z,17.35
2018-08-27T02:53:07.444Z,17.32
2018-08-27T02:54:12.960Z,17.20
2018-08-27T02:55:18.471Z,17.32
2018-08-27T02:56:23.989Z,17.20
2018-08-27T02:57:29.501Z,17.26
2018-08-27T02:58:35.024Z,17.25
2018-08-27T02:59:40.535Z,17.23
2018-08-27T03:00:46.055Z,17.26
2018-08-27T03:01:51.561Z,17.25
2018-08-27T03:02:57.076Z,17.29
2018-08-27T03:04:02.591Z,17.14
2018-08-27T03:05:08.113Z,17.11
2018-08-27T03:06:13.620Z,17.15
2018-08-27T03:07:19.133Z,17.08
2018-08-27T03:08:24.647Z,17.15
2018-08-27T03:09:30.166Z,17.08
2018-08-27T03:10:35.678Z,17.13
2018-08-27T03:11:41.192Z,17.00
2018-08-27T03:12:46.704Z,16.98
2018-08-27T03:13:52.220Z,17.03
2018-08-27T03:14:57.738Z,16.98
2018-08-27T03:16:03.250Z,17.03
2018-08-27T03:17:08.764Z,16.93
2018-08-27T03:18:14.289Z,16.90
2018-08-27T03:19:19.789Z,16.93
2018-08-27T03:20:25.307Z,16.83
2018-08-27T03:21:30.829Z,16.81
2018-08-27T03:22:36.332Z,16.88
2018-08-27T03:23:41.847Z,16.85
2018-08-27T03:24:47.393Z,16.78
2018-08-27T03:25:52.884Z,16.88
2018-08-27T03:26:58.388Z,16.80
2018-08-27T03:28:03.912Z,16.83
2018-08-27T03:29:09.423Z,16.95
2018-08-27T03:30:14.935Z,16.80
2018-08-27T03:31:20.450Z,16.85
2018-08-27T03:32:25.962Z,16.80
2018-08-27T03:33:31.481Z,16.85
2018-08-27T03:34:36.993Z,16.81
2018-08-27T03:35:42.509Z,16.81
2018-08-27T03:36:48.028Z,16.86
2018-08-27T03:37:53.537Z,16.89
2018-08-27T03:38:59.049Z,16.83
2018-08-27T03:40:04.561Z,16.77
2018-08-27T03:41:10.078Z,16.85
2018-08-27T03:42:15.587Z,16.90
2018-08-27T03:43:21.104Z,16.81
2018-08-27T03:44:26.626Z,16.85
2018-08-27T03:45:32.130Z,16.85
2018-08-27T03:46:37.652Z,16.85
2018-08-27T03:47:43.158Z,16.88
2018-08-27T03:48:48.679Z,16.78
2018-08-27T03:49:54.190Z,16.89
2018-08-27T03:50:59.710Z,16.81
2018-08-27T03:52:05.220Z,16.93
2018-08-27T03:53:10.739Z,16.85
2018-08-27T03:54:16.249Z,16.90
2018-08-27T03:55:21.764Z,16.95
2018-08-27T03:56:27.276Z,16.93
2018-08-27T03:57:32.790Z,16.89
2018-08-27T03:58:38.307Z,16.96
2018-08-27T03:59:43.816Z,16.85
2018-08-27T04:00:49.333Z,16.81
2018-08-27T04:01:54.843Z,16.83
2018-08-27T04:03:00.359Z,16.92
2018-08-27T04:04:05.874Z,16.92
2018-08-27T04:05:11.427Z,16.88
2018-08-27T04:06:16.914Z,16.85
2018-08-27T04:07:22.422Z,16.83
2018-08-27T04:08:27.933Z,16.86
2018-08-27T04:09:33.446Z,16.75
2018-08-27T04:10:38.965Z,16.80
2018-08-27T04:11:45.020Z,16.81
2018-08-27T04:12:49.988Z,16.80
2018-08-27T04:13:55.505Z,16.77
2018-08-27T04:15:01.018Z,16.71
2018-08-27T04:16:06.529Z,16.73
2018-08-27T04:17:12.046Z,16.63
2018-08-27T04:18:17.549Z,16.71
2018-08-27T04:19:23.074Z,16.74
2018-08-27T04:20:28.584Z,16.62
2018-08-27T04:21:34.105Z,16.62
2018-08-27T04:22:39.615Z,16.68
2018-08-27T04:23:45.141Z,16.59
2018-08-27T04:24:50.643Z,16.52
2018-08-27T04:25:56.161Z,16.60
2018-08-27T04:27:01.671Z,16.48
2018-08-27T04:28:07.192Z,16.48
2018-08-27T04:29:12.704Z,16.40
2018-08-27T04:30:18.217Z,16.44
2018-08-27T04:31:23.728Z,16.44
2018-08-27T04:32:29.241Z,16.41
2018-08-27T04:33:34.755Z,16.48
2018-08-27T04:34:40.318Z,16.45
2018-08-27T04:35:45.786Z,16.42
2018-08-27T04:36:51.304Z,16.41
2018-08-27T04:37:56.816Z,16.30
2018-08-27T04:39:02.331Z,16.38
2018-08-27T04:40:07.841Z,16.37
2018-08-27T04:41:13.357Z,16.40
2018-08-27T04:42:18.871Z,16.26
2018-08-27T04:43:24.382Z,16.27
2018-08-27T04:44:29.897Z,16.31
2018-08-27T04:45:35.441Z,16.35
2018-08-27T04:46:40.928Z,16.35
2018-08-27T04:47:46.439Z,16.37
2018-08-27T04:48:51.951Z,16.40
2018-08-27T04:49:57.464Z,16.37
2018-08-27T04:51:02.977Z,16.34
2018-08-27T04:52:08.496Z,16.31
2018-08-27T04:53:14.004Z,16.33
2018-08-27T04:54:19.522Z,16.31
2018-08-27T04:55:25.035Z,16.38
2018-08-27T04:56:30.550Z,16.34
2018-08-27T04:57:36.064Z,16.35
2018-08-27T04:58:41.581Z,16.37
2018-08-27T04:59:47.092Z,16.40
2018-08-27T05:00:52.605Z,16.41
2018-08-27T05:01:58.127Z,16.37
2018-08-27T05:03:03.632Z,16.40
2018-08-27T05:04:09.147Z,16.37
2018-08-27T05:05:14.663Z,16.42
2018-08-27T05:06:20.171Z,16.48
2018-08-27T05:07:25.685Z,16.48
2018-08-27T05:08:31.204Z,16.53
2018-08-27T05:09:36.714Z,16.44
2018-08-27T05:10:42.235Z,16.52
2018-08-27T05:11:47.741Z,16.48
2018-08-27T05:12:53.261Z,16.55
2018-08-27T05:13:58.771Z,16.59
2018-08-27T05:15:04.291Z,16.63
2018-08-27T05:16:09.798Z,16.59
2018-08-27T05:17:15.320Z,16.60
2018-08-27T05:18:20.823Z,16.63
2018-08-27T05:19:26.338Z,16.67
2018-08-27T05:20:31.863Z,16.63
2018-08-27T05:21:37.371Z,16.70
2018-08-27T05:22:42.895Z,16.60
2018-08-27T05:23:48.398Z,16.67
2018-08-27T05:24:53.911Z,16.67
2018-08-27T05:25:59.430Z,16.68
2018-08-27T05:27:04.940Z,16.65
2018-08-27T05:28:10.462Z,16.74
2018-08-27T05:29:15.969Z,16.67
2018-08-27T05:30:21.479Z,16.67
2018-08-27T05:31:27.040Z,16.67
2018-08-27T05:32:32.507Z,16.77
2018-08-27T05:33:38.025Z,16.81
2018-08-27T05:34:43.539Z,16.80
2018-08-27T05:35:49.051Z,16.86
2018-08-27T05:36:54.566Z,16.85
2018-08-27T05:38:00.098Z,16.80
2018-08-27T05:39:05.595Z,16.80
2018-08-27T05:40:11.106Z,16.81
2018-08-27T05:41:16.630Z,16.80
2018-08-27T05:42:22.145Z,16.88
2018-08-27T05:43:27.650Z,16.80
2018-08-27T05:44:33.202Z,16.81
2018-08-27T05:45:38.678Z,16.83
2018-08-27T05:46:44.199Z,16.85
2018-08-27T05:47:49.758Z,16.86
2018-08-27T05:48:55.222Z,16.78
2018-08-27T05:50:00.734Z,16.88
2018-08-27T05:51:06.250Z,16.93
2018-08-27T05:52:11.790Z,16.90
2018-08-27T05:53:17.277Z,16.90
2018-08-27T05:54:22.795Z,16.96
2018-08-27T05:55:28.307Z,16.92
2018-08-27T05:56:33.829Z,16.96
2018-08-27T05:57:39.336Z,16.96
2018-08-27T05:58:44.845Z,16.88
2018-08-27T05:59:50.370Z,16.93
2018-08-27T06:00:55.878Z,16.95
2018-08-27T06:02:01.487Z,16.95
2018-08-27T06:03:06.905Z,16.93
2018-08-27T06:04:12.421Z,16.93
2018-08-27T06:05:17.935Z,16.95
2018-08-27T06:06:23.458Z,16.96
2018-08-27T06:07:28.962Z,17.04
2018-08-27T06:08:34.478Z,17.03
2018-08-27T06:09:40.049Z,17.06
2018-08-27T06:10:45.522Z,17.06
2018-08-27T06:11:51.026Z,17.06
2018-08-27T06:12:56.535Z,17.08
2018-08-27T06:14:02.047Z,17.07
2018-08-27T06:15:07.564Z,17.06
2018-08-27T06:16:13.101Z,17.07
2018-08-27T06:17:18.598Z,17.07
2018-08-27T06:18:24.108Z,17.13
2018-08-27T06:19:29.620Z,17.13
2018-08-27T06:20:35.136Z,17.17
2018-08-27T06:21:40.652Z,17.18
2018-08-27T06:22:46.165Z,17.14
2018-08-27T06:23:51.675Z,17.14
2018-08-27T06:24:57.201Z,17.15
2018-08-27T06:26:02.715Z,17.07
2018-08-27T06:27:08.228Z,17.11
2018-08-27T06:28:13.735Z,17.15
2018-08-27T06:29:19.252Z,17.18
2018-08-27T06:30:24.764Z,17.11
2018-08-27T06:31:30.278Z,17.18
2018-08-27T06:32:35.849Z,17.14
2018-08-27T06:33:41.316Z,17.15
2018-08-27T06:34:46.836Z,17.20
2018-08-27T06:35:52.337Z,17.25
2018-08-27T06:36:57.856Z,17.25
2018-08-27T06:38:03.402Z,17.25
2018-08-27T06:39:08.875Z,17.28
2018-08-27T06:40:15.090Z,17.30
2018-08-27T06:41:19.912Z,17.29
2018-08-27T06:42:25.419Z,17.26
2018-08-27T06:43:30.933Z,17.38
2018-08-27T06:44:36.529Z,17.35
2018-08-27T06:45:41.963Z,17.38
2018-08-27T06:46:47.484Z,17.43
2018-08-27T06:47:52.996Z,17.38
2018-08-27T06:48:58.509Z,17.36
2018-08-27T06:50:04.023Z,17.36
2018-08-27T06:51:09.538Z,17.38
2018-08-27T06:52:15.053Z,17.43
2018-08-27T06:53:20.564Z,17.40
2018-08-27T06:54:26.078Z,17.51
2018-08-27T06:55:31.596Z,17.50
2018-08-27T06:56:37.118Z,17.53
2018-08-27T06:57:42.622Z,17.50
2018-08-27T06:58:48.143Z,17.51
2018-08-27T06:59:53.654Z,17.57
2018-08-27T07:00:59.170Z,17.46
2018-08-27T07:02:04.694Z,17.54
2018-08-27T07:03:10.196Z,17.59
2018-08-27T07:04:15.718Z,17.59
2018-08-27T07:05:21.227Z,17.55
2018-08-27T07:06:26.740Z,17.59
2018-08-27T07:07:32.273Z,17.57
2018-08-27T07:08:37.771Z,17.57
2018-08-27T07:09:43.285Z,17.63
2018-08-27T07:10:48.802Z,17.59
2018-08-27T07:11:54.311Z,17.53
2018-08-27T07:12:59.829Z,17.51
2018-08-27T07:14:05.350Z,17.64
2018-08-27T07:15:10.861Z,17.48
2018-08-27T07:16:16.373Z,17.64
2018-08-27T07:17:21.886Z,17.64
2018-08-27T07:18:27.399Z,17.57
2018-08-27T07:19:32.917Z,17.59
2018-08-27T07:20:38.429Z,17.59
2018-08-27T07:21:43.943Z,17.64
2018-08-27T07:22:49.468Z,17.66
2018-08-27T07:23:54.977Z,17.70
2018-08-27T07:25:00.492Z,17.69
2018-08-27T07:26:06.004Z,17.67
2018-08-27T07:27:11.518Z,17.70
2018-08-27T07:28:17.042Z,17.66
2018-08-27T07:29:22.545Z,17.70
2018-08-27T07:30:28.065Z,17.71
2018-08-27T07:31:33.577Z,17.70
2018-08-27T07:32:39.094Z,17.70
2018-08-27T07:33:44.614Z,17.76
2018-08-27T07:34:50.133Z,17.73
2018-08-27T07:35:55.636Z,17.76
2018-08-27T07:37:01.152Z,17.73
2018-08-27T07:38:06.665Z,17.76
2018-08-27T07:39:12.180Z,17.70
2018-08-27T07:40:17.695Z,17.73
2018-08-27T07:41:23.213Z,17.71
2018-08-27T07:42:28.732Z,17.76
2018-08-27T07:43:34.264Z,17.70
2018-08-27T07:44:39.757Z,17.76
2018-08-27T07:45:45.283Z,17.74
2018-08-27T07:46:50.782Z,17.74
2018-08-27T07:47:56.298Z,17.73
2018-08-27T07:49:01.816Z,17.74
2018-08-27T07:50:07.334Z,17.76
2018-08-27T07:51:12.874Z,17.79
2018-08-27T07:52:18.365Z,17.79
2018-08-27T07:53:23.872Z,17.78
2018-08-27T07:54:29.388Z,17.82
2018-08-27T07:55:34.902Z,17.89
2018-08-27T07:56:40.421Z,17.91
2018-08-27T07:57:45.932Z,17.92
2018-08-27T07:58:51.449Z,17.92
2018-08-27T07:59:56.958Z,17.91
2018-08-27T08:01:02.484Z,17.99
2018-08-27T08:02:07.992Z,18.00
2018-08-27T08:03:13.509Z,18.02
2018-08-27T08:04:19.017Z,17.99
2018-08-27T08:05:24.541Z,17.95
2018-08-27T08:06:30.055Z,17.84
2018-08-27T08:07:35.568Z,18.02
2018-08-27T08:08:41.078Z,18.04
2018-08-27T08:09:46.600Z,17.89
2018-08-27T08:10:52.121Z,18.04
2018-08-27T08:11:57.622Z,17.95
2018-08-27T08:13:03.142Z,18.04
2018-08-27T08:14:08.660Z,18.10
2018-08-27T08:15:14.178Z,18.00
2018-08-27T08:16:19.684Z,18.02
2018-08-27T08:17:25.213Z,17.97
2018-08-27T08:18:30.728Z,18.06
2018-08-27T08:19:36.228Z,18.07
2018-08-27T08:20:41.744Z,18.17
2018-08-27T08:21:47.262Z,18.18
2018-08-27T08:22:52.845Z,18.27
2018-08-27T08:23:58.291Z,18.18
2018-08-27T08:25:03.813Z,18.25
2018-08-27T08:26:09.322Z,18.29
2018-08-27T08:27:14.836Z,18.33
2018-08-27T08:28:20.356Z,18.39
2018-08-27T08:29:25.869Z,18.37
2018-08-27T08:30:31.382Z,18.40
2018-08-27T08:31:36.896Z,18.43
2018-08-27T08:32:42.413Z,18.44
2018-08-27T08:33:47.930Z,18.42
2018-08-27T08:34:53.443Z,18.49
2018-08-27T08:35:58.955Z,18.46
2018-08-27T08:37:04.478Z,18.58
2018-08-27T08:38:09.984Z,18.57
2018-08-27T08:39:15.506Z,18.59
2018-08-27T08:40:21.009Z,18.57
2018-08-27T08:41:26.533Z,18.57
2018-08-27T08:42:32.045Z,18.68
2018-08-27T08:43:37.558Z,18.73
2018-08-27T08:44:43.095Z,18.65
2018-08-27T08:45:48.593Z,18.68
2018-08-27T08:46:54.107Z,18.72
2018-08-27T08:47:59.646Z,18.64
2018-08-27T08:49:05.138Z,18.64
2018-08-27T08:50:10.655Z,18.73
2018-08-27T08:51:16.168Z,18.70
2018-08-27T08:52:21.682Z,18.68
2018-08-27T08:53:27.241Z,18.72
2018-08-27T08:54:32.711Z,18.77
2018-08-27T08:55:38.229Z,18.77
2018-08-27T08:56:43.747Z,18.76
2018-08-27T08:57:49.260Z,18.77
2018-08-27T08:58:54.781Z,18.82
2018-08-27T09:00:00.289Z,18.79
2018-08-27T09:01:05.861Z,18.76
2018-08-27T09:02:11.328Z,18.76
2018-08-27T09:03:16.834Z,18.80
2018-08-27T09:04:22.351Z,18.83
2018-08-27T09:05:27.874Z,18.72
2018-08-27T09:06:33.386Z,18.77
2018-08-27T09:07:38.902Z,18.76
2018-08-27T09:08:44.413Z,18.70
2018-08-27T09:09:49.927Z,18.76
2018-08-27T09:10:55.446Z,18.74
2018-08-27T09:12:00.959Z,18.77
2018-08-27T09:13:06.477Z,18.82
2018-08-27T09:14:11.998Z,18.77
2018-08-27T09:15:17.505Z,18.86
2018-08-27T09:16:23.020Z,18.92
2018-08-27T09:17:28.591Z,18.92
2018-08-27T09:18:34.053Z,18.90
2018-08-27T09:19:39.567Z,18.92
2018-08-27T09:20:45.085Z,18.90
2018-08-27T09:21:50.614Z,18.87
2018-08-27T09:22:56.118Z,18.92
2018-08-27T09:24:01.633Z,18.95
2018-08-27T09:25:07.143Z,18.95
2018-08-27T09:26:12.678Z,18.90
2018-08-27T09:27:18.181Z,19.06
2018-08-27T09:28:23.700Z,19.15
2018-08-27T09:29:29.204Z,19.10
2018-08-27T09:30:34.722Z,19.08
2018-08-27T09:31:40.237Z,19.15
2018-08-27T09:32:45.750Z,19.10
2018-08-27T09:33:51.271Z,19.13
2018-08-27T09:34:56.799Z,19.11
2018-08-27T09:36:02.300Z,19.14
2018-08-27T09:37:07.843Z,19.28
2018-08-27T09:38:13.334Z,19.25
2018-08-27T09:39:18.850Z,19.21
2018-08-27T09:40:24.361Z,19.31
2018-08-27T09:41:29.916Z,19.29
2018-08-27T09:42:35.393Z,19.40
2018-08-27T09:43:40.909Z,19.38
2018-08-27T09:44:46.428Z,19.48
2018-08-27T09:45:51.966Z,19.47
2018-08-27T09:46:57.547Z,19.51
2018-08-27T09:48:02.974Z,19.51
2018-08-27T09:49:08.485Z,19.65
2018-08-27T09:50:14.021Z,19.55
2018-08-27T09:51:19.518Z,19.66
2018-08-27T09:52:25.045Z,19.72
2018-08-27T09:53:30.554Z,19.75
2018-08-27T09:54:36.061Z,19.79
2018-08-27T09:55:41.584Z,19.78
2018-08-27T09:56:47.098Z,19.94
2018-08-27T09:57:52.610Z,20.02
2018-08-27T09:58:58.161Z,20.09
2018-08-27T10:00:03.658Z,20.06
2018-08-27T10:01:09.161Z,20.18
2018-08-27T10:02:14.683Z,20.20
2018-08-27T10:03:20.195Z,20.20
2018-08-27T10:04:25.720Z,20.31
2018-08-27T10:05:31.230Z,20.39
2018-08-27T10:06:36.746Z,20.38
2018-08-27T10:07:42.258Z,20.46
2018-08-27T10:08:47.770Z,20.50
2018-08-27T10:09:53.289Z,20.46
2018-08-27T10:10:58.809Z,20.49
2018-08-27T10:12:04.322Z,20.59
2018-08-27T10:13:09.838Z,20.54
2018-08-27T10:14:15.359Z,20.53
2018-08-27T10:15:20.871Z,20.58
2018-08-27T10:16:26.396Z,20.53
2018-08-27T10:17:31.903Z,20.64
2018-08-27T10:18:37.421Z,20.64
2018-08-27T10:19:42.942Z,20.56
2018-08-27T10:20:48.455Z,20.66
2018-08-27T10:21:53.970Z,20.65
2018-08-27T10:22:59.487Z,20.66
2018-08-27T10:24:05.005Z,20.61
2018-08-27T10:25:10.515Z,20.74
2018-08-27T10:26:16.041Z,20.79
2018-08-27T10:27:21.557Z,20.77
2018-08-27T10:28:27.072Z,20.89
2018-08-27T10:29:32.588Z,20.91
2018-08-27T10:30:38.105Z,20.98
2018-08-27T10:31:43.617Z,21.05
2018-08-27T10:32:49.139Z,21.11
2018-08-27T10:33:54.649Z,21.08
2018-08-27T10:35:00.171Z,21.04
2018-08-27T10:36:05.685Z,21.09
2018-08-27T10:37:11.252Z,21.09
2018-08-27T10:38:16.720Z,21.08
2018-08-27T10:39:22.236Z,21.11
2018-08-27T10:40:27.755Z,21.09
2018-08-27T10:41:33.269Z,21.13
2018-08-27T10:42:38.805Z,21.11
2018-08-27T10:43:44.306Z,21.17
2018-08-27T10:44:49.824Z,21.14
2018-08-27T10:45:55.339Z,21.16
2018-08-27T10:47:00.861Z,21.17
2018-08-27T10:48:06.368Z,21.26
2018-08-27T10:49:11.901Z,21.21
2018-08-27T10:50:17.456Z,21.24
2018-08-27T10:51:22.926Z,21.32
2018-08-27T10:52:28.445Z,21.41
2018-08-27T10:53:33.955Z,21.38
2018-08-27T10:54:39.478Z,21.36
2018-08-27T10:55:45.001Z,21.36
2018-08-27T10:56:50.505Z,21.35
2018-08-27T10:57:56.086Z,21.30
2018-08-27T10:59:01.539Z,21.41
2018-08-27T11:00:07.057Z,21.44
2018-08-27T11:01:12.573Z,21.29
2018-08-27T11:02:18.090Z,21.38
2018-08-27T11:03:23.607Z,21.32
2018-08-27T11:04:29.125Z,21.35
2018-08-27T11:05:34.643Z,21.30
2018-08-27T11:06:40.163Z,21.32
2018-08-27T11:07:45.677Z,21.30
2018-08-27T11:08:51.196Z,21.27
2018-08-27T11:09:56.718Z,21.23
2018-08-27T11:11:02.228Z,21.24
2018-08-27T11:12:07.743Z,21.20
2018-08-27T11:13:13.258Z,21.14
2018-08-27T11:14:18.788Z,21.16
2018-08-27T11:15:24.292Z,21.09
2018-08-27T11:16:29.807Z,21.08
2018-08-27T11:17:35.336Z,21.16
2018-08-27T11:18:40.844Z,21.16
2018-08-27T11:19:46.380Z,21.13
2018-08-27T11:20:51.893Z,21.17
2018-08-27T11:21:57.399Z,21.24
2018-08-27T11:23:02.911Z,21.27
2018-08-27T11:24:08.439Z,21.30
2018-08-27T11:25:13.955Z,21.35
2018-08-27T11:26:19.541Z,21.34
2018-08-27T11:27:24.984Z,21.39
2018-08-27T11:28:30.521Z,21.42
2018-08-27T11:29:36.016Z,21.45
2018-08-27T11:30:41.538Z,21.60
2018-08-27T11:31:47.044Z,21.60
2018-08-27T11:32:52.575Z,21.76
2018-08-27T11:33:58.090Z,21.99
2018-08-27T11:35:03.600Z,22.09
2018-08-27T11:36:09.114Z,22.23
2018-08-27T11:37:14.632Z,22.35
2018-08-27T11:38:20.156Z,22.38
2018-08-27T11:39:25.670Z,22.50
2018-08-27T11:40:31.191Z,22.49
2018-08-27T11:41:36.709Z,22.68
2018-08-27T11:42:42.222Z,22.82
2018-08-27T11:43:47.748Z,22.82
2018-08-27T11:44:53.263Z,22.87
2018-08-27T11:45:58.772Z,22.90
2018-08-27T11:47:04.336Z,23.07
2018-08-27T11:48:09.810Z,23.27
2018-08-27T11:49:15.337Z,23.29
2018-08-27T11:50:20.921Z,23.39
2018-08-27T11:51:26.361Z,23.47
2018-08-27T11:52:31.880Z,23.50
2018-08-27T11:53:37.400Z,23.49
2018-08-27T11:54:42.917Z,23.50
2018-08-27T11:55:48.432Z,23.60
2018-08-27T11:56:53.953Z,23.67
2018-08-27T11:57:59.474Z,23.75
2018-08-27T11:59:04.987Z,23.85
2018-08-27T12:00:10.515Z,23.89
2018-08-27T12:01:16.101Z,24.00
2018-08-27T12:02:21.544Z,24.12
2018-08-27T12:03:27.058Z,24.19
2018-08-27T12:04:32.576Z,24.20
2018-08-27T12:05:38.100Z,24.26
2018-08-27T12:06:43.616Z,24.26
2018-08-27T12:07:49.135Z,24.27
2018-08-27T12:08:54.699Z,24.41
2018-08-27T12:10:00.169Z,24.20
2018-08-27T12:11:05.690Z,24.19
2018-08-27T12:12:11.202Z,24.14
2018-08-27T12:13:16.722Z,23.97
2018-08-27T12:14:22.245Z,23.95
2018-08-27T12:15:27.762Z,23.86
2018-08-27T12:16:33.279Z,23.90
2018-08-27T12:17:38.803Z,23.86
2018-08-27T12:18:44.313Z,23.76
2018-08-27T12:19:49.834Z,23.76
2018-08-27T12:20:55.353Z,23.87
2018-08-27T12:22:00.879Z,23.97
2018-08-27T12:23:06.392Z,23.92
2018-08-27T12:24:11.910Z,23.94
2018-08-27T12:25:17.433Z,23.95
2018-08-27T12:26:22.945Z,24.00
2018-08-27T12:27:28.478Z,24.01
2018-08-27T12:28:33.990Z,24.19
2018-08-27T12:29:39.497Z,24.19
2018-08-27T12:30:45.032Z,24.24
2018-08-27T12:31:50.543Z,24.29
2018-08-27T12:32:56.067Z,24.26
2018-08-27T12:34:01.574Z,24.22
2018-08-27T12:35:07.100Z,24.17
2018-08-27T12:36:12.608Z,24.17
2018-08-27T12:37:18.133Z,24.07
2018-08-27T12:38:23.651Z,24.13
2018-08-27T12:39:29.170Z,24.02
2018-08-27T12:40:34.706Z,23.98
2018-08-27T12:41:40.203Z,23.90
2018-08-27T12:42:45.725Z,23.98
2018-08-27T12:43:51.244Z,23.98
2018-08-27T12:44:56.768Z,24.17
2018-08-27T12:46:02.277Z,24.19
2018-08-27T12:47:07.797Z,24.14
2018-08-27T12:48:13.322Z,24.22
2018-08-27T12:49:18.834Z,24.12
2018-08-27T12:50:24.350Z,24.00
2018-08-27T12:51:29.872Z,23.97
2018-08-27T12:52:35.404Z,23.92
2018-08-27T12:53:40.909Z,24.04
2018-08-27T12:54:46.428Z,23.89
2018-08-27T12:55:51.949Z,24.01
2018-08-27T12:56:57.467Z,24.02
2018-08-27T12:58:02.984Z,23.92
2018-08-27T12:59:08.501Z,23.98
2018-08-27T13:00:14.021Z,23.97
2018-08-27T13:01:19.540Z,24.02
2018-08-27T13:02:25.071Z,23.94
2018-08-27T13:03:30.574Z,23.90
2018-08-27T13:04:36.096Z,23.79
2018-08-27T13:05:41.655Z,23.76
2018-08-27T13:06:47.132Z,23.82
2018-08-27T13:07:52.723Z,23.76
2018-08-27T13:08:58.174Z,23.83
2018-08-27T13:10:03.687Z,23.80
2018-08-27T13:11:09.214Z,23.87
2018-08-27T13:12:14.728Z,23.94
2018-08-27T13:13:20.246Z,24.01
2018-08-27T13:14:25.781Z,24.05
2018-08-27T13:15:31.272Z,24.16
2018-08-27T13:16:36.806Z,24.16
2018-08-27T13:17:42.319Z,24.08
2018-08-27T13:18:47.901Z,24.02
2018-08-27T13:19:53.357Z,23.92
2018-08-27T13:20:58.872Z,23.89
2018-08-27T13:22:04.406Z,23.94
2018-08-27T13:23:09.907Z,23.90
2018-08-27T13:24:15.436Z,23.87
2018-08-27T13:25:20.949Z,24.05
2018-08-27T13:26:26.475Z,24.02
2018-08-27T13:27:32.007Z,24.12
2018-08-27T13:28:37.507Z,24.16
2018-08-27T13:29:43.026Z,24.16
2018-08-27T13:30:48.543Z,24.26
2018-08-27T13:31:54.117Z,24.29
2018-08-27T13:32:59.581Z,24.38
2018-08-27T13:34:05.095Z,24.44
2018-08-27T13:35:10.618Z,24.49
2018-08-27T13:36:16.137Z,24.52
2018-08-27T13:37:21.667Z,24.45
2018-08-27T13:38:27.172Z,24.47
2018-08-27T13:39:32.693Z,24.42
2018-08-27T13:40:38.319Z,24.47
2018-08-27T13:41:43.763Z,24.32
2018-08-27T13:42:49.247Z,24.29
2018-08-27T13:43:54.769Z,24.47
2018-08-27T13:45:00.290Z,24.56
2018-08-27T13:46:05.806Z,24.47
2018-08-27T13:47:11.323Z,24.57
2018-08-27T13:48:16.838Z,24.56
2018-08-27T13:49:22.369Z,24.50
2018-08-27T13:50:27.878Z,24.44
2018-08-27T13:51:33.397Z,24.39
2018-08-27T13:52:38.922Z,24.42
2018-08-27T13:53:44.440Z,24.45
2018-08-27T13:54:49.958Z,24.35
2018-08-27T13:55:55.474Z,24.38
2018-08-27T13:57:00.990Z,24.38
2018-08-27T13:58:06.517Z,24.39
2018-08-27T13:59:12.033Z,24.39
2018-08-27T14:00:17.623Z,24.38
2018-08-27T14:01:23.072Z,24.41
2018-08-27T14:02:28.585Z,24.44
2018-08-27T14:03:34.113Z,24.41